createdAt,value
2023-05-19T00:02:22.305Z,4.43
2023-05-19T00:04:51.041Z,4.47
2023-05-19T00:07:20.286Z,4.55
2023-05-19T00:09:50.334Z,4.53
2023-05-19T00:12:19.019Z,4.53
2023-05-19T00:14:47.367Z,4.47
2023-05-19T00:17:17.042Z,4.40
2023-05-19T00:19:45.427Z,4.47
2023-05-19T00:22:13.373Z,5.00
2023-05-19T00:24:41.555Z,4.60
2023-05-19T00:27:11.140Z,4.50
2023-05-19T00:29:40.026Z,4.03
2023-05-19T00:32:08.048Z,4.95
2023-05-19T00:34:36.406Z,4.93
2023-05-19T00:37:04.572Z,5.13
2023-05-19T00:39:32.944Z,4.68
2023-05-19T00:42:01.317Z,5.00
2023-05-19T00:44:30.764Z,4.95
2023-05-19T00:46:59.082Z,4.90
2023-05-19T00:49:27.108Z,4.82
2023-05-19T00:51:55.569Z,4.82
2023-05-19T00:54:23.612Z,5.05
2023-05-19T00:56:51.760Z,4.60
2023-05-19T00:59:19.638Z,4.95
2023-05-19T01:01:50.073Z,4.95
2023-05-19T01:04:20.211Z,4.93
2023-05-19T01:06:49.663Z,5.30
2023-05-19T01:09:17.964Z,5.05
2023-05-19T01:11:46.057Z,4.70
2023-05-19T01:14:14.031Z,5.10
2023-05-19T01:16:45.227Z,4.97
2023-05-19T01:19:30.926Z,4.68
2023-05-19T01:22:16.490Z,4.97
2023-05-19T01:25:08.994Z,4.72
2023-05-19T01:27:57.511Z,5.35
2023-05-19T01:30:30.493Z,5.15
2023-05-19T01:33:01.796Z,5.10
2023-05-19T01:35:30.599Z,5.07
2023-05-19T01:38:01.585Z,5.72
2023-05-19T01:40:30.495Z,5.25
2023-05-19T01:43:00.099Z,5.03
2023-05-19T01:45:32.186Z,5.40
2023-05-19T01:48:01.872Z,5.35
2023-05-19T01:50:30.651Z,5.07
2023-05-19T01:52:59.453Z,5.38
2023-05-19T01:55:28.854Z,5.55
2023-05-19T01:58:04.306Z,5.22
2023-05-19T02:00:43.554Z,5.05
2023-05-19T02:03:24.594Z,5.90
2023-05-19T02:05:57.337Z,5.40
2023-05-19T02:08:29.103Z,4.72
2023-05-19T02:10:59.810Z,5.57
2023-05-19T02:13:32.554Z,6.20
2023-05-19T02:16:05.651Z,5.40
2023-05-19T02:18:35.472Z,5.80
2023-05-19T02:21:03.474Z,5.93
2023-05-19T02:23:32.200Z,5.80
2023-05-19T02:26:00.560Z,5.13
2023-05-19T02:28:28.739Z,5.72
2023-05-19T02:30:56.590Z,5.57
2023-05-19T02:33:27.598Z,5.70
2023-05-19T02:35:56.327Z,6.07
2023-05-19T02:38:24.725Z,6.13
2023-05-19T02:40:54.330Z,5.65
2023-05-19T02:43:22.266Z,5.72
2023-05-19T02:45:50.267Z,6.10
2023-05-19T02:48:18.386Z,5.65
2023-05-19T02:50:49.009Z,6.03
2023-05-19T02:53:17.050Z,5.90
2023-05-19T02:55:44.891Z,6.50
2023-05-19T02:58:12.997Z,5.90
2023-05-19T03:00:40.904Z,6.43
2023-05-19T03:03:10.442Z,5.75
2023-05-19T03:05:38.651Z,6.07
2023-05-19T03:08:08.055Z,6.00
2023-05-19T03:10:36.007Z,5.72
2023-05-19T03:13:04.210Z,6.22
2023-05-19T03:15:32.636Z,6.35
2023-05-19T03:18:00.617Z,6.22
2023-05-19T03:20:30.639Z,6.85
2023-05-19T03:22:59.130Z,6.45
2023-05-19T03:25:28.560Z,6.97
2023-05-19T03:27:56.506Z,6.50
2023-05-19T03:30:24.666Z,6.65
2023-05-19T03:33:05.538Z,6.50
2023-05-19T03:35:33.731Z,6.97
2023-05-19T03:38:01.912Z,6.95
2023-05-19T03:40:32.190Z,6.85
2023-05-19T03:43:05.979Z,7.40
2023-05-19T03:45:37.975Z,6.40
2023-05-19T03:48:21.457Z,6.82
2023-05-19T03:51:19.362Z,6.65
2023-05-19T03:53:49.491Z,7.25
2023-05-19T03:56:19.022Z,7.43
2023-05-19T03:58:48.348Z,6.95
2023-05-19T04:01:16.599Z,7.82
2023-05-19T04:03:44.769Z,7.55
2023-05-19T04:06:12.989Z,7.80
2023-05-19T04:08:41.345Z,7.00
2023-05-19T04:11:09.705Z,7.88
2023-05-19T04:13:38.967Z,7.35
2023-05-19T04:16:08.380Z,8.07
2023-05-19T04:18:36.768Z,8.10
2023-05-19T04:21:05.856Z,7.55
2023-05-19T04:23:33.811Z,7.95
2023-05-19T04:26:03.718Z,8.07
2023-05-19T04:28:32.122Z,7.65
2023-05-19T04:31:01.700Z,7.53
2023-05-19T04:33:29.771Z,8.45
2023-05-19T04:35:58.825Z,7.75
2023-05-19T04:38:28.272Z,8.40
2023-05-19T04:40:56.598Z,9.65
2023-05-19T04:43:25.384Z,8.25
2023-05-19T04:45:53.219Z,8.70
2023-05-19T04:48:23.792Z,8.32
2023-05-19T04:50:53.307Z,8.68
2023-05-19T04:53:22.154Z,8.57
2023-05-19T04:55:50.511Z,8.30
2023-05-19T04:58:19.833Z,8.52
2023-05-19T05:00:48.690Z,8.70
2023-05-19T05:03:16.780Z,8.30
2023-05-19T05:05:46.390Z,8.45
2023-05-19T05:08:16.309Z,8.82
2023-05-19T05:10:44.634Z,8.90
2023-05-19T05:13:13.199Z,8.45
2023-05-19T05:15:41.899Z,8.13
2023-05-19T05:18:11.852Z,8.90
2023-05-19T05:20:40.976Z,8.45
2023-05-19T05:23:14.671Z,7.45
2023-05-19T05:25:45.360Z,9.77
2023-05-19T05:28:15.479Z,8.52
2023-05-19T05:30:45.065Z,8.70
2023-05-19T05:33:15.278Z,8.52
2023-05-19T05:35:43.558Z,8.70
2023-05-19T05:38:15.061Z,7.97
2023-05-19T05:40:43.621Z,8.48
2023-05-19T05:43:11.672Z,8.50
2023-05-19T05:45:46.238Z,8.45
2023-05-19T05:48:15.662Z,8.15
2023-05-19T05:50:45.500Z,8.35
2023-05-19T05:53:20.000Z,7.57
2023-05-19T05:55:51.198Z,8.23
2023-05-19T05:58:21.336Z,8.88
2023-05-19T06:00:51.631Z,8.15
2023-05-19T06:03:22.192Z,7.63
2023-05-19T06:05:50.948Z,7.50
2023-05-19T06:08:20.692Z,7.10
2023-05-19T06:10:48.790Z,7.10
2023-05-19T06:13:22.875Z,6.70
2023-05-19T06:18:31.872Z,5.88
2023-05-19T06:21:00.102Z,5.93
2023-05-19T06:23:29.637Z,6.13
2023-05-19T06:25:57.919Z,6.97
2023-05-19T06:28:25.791Z,5.88
2023-05-19T06:30:54.034Z,6.10
2023-05-19T06:33:29.441Z,5.50
2023-05-19T06:35:57.889Z,5.78
2023-05-19T06:38:26.450Z,5.40
2023-05-19T06:40:55.968Z,5.20
2023-05-19T06:43:25.746Z,5.45
2023-05-19T06:45:58.484Z,4.70
2023-05-19T06:48:27.524Z,4.97
2023-05-19T06:50:56.099Z,4.57
2023-05-19T06:53:27.215Z,4.45
2023-05-19T06:56:00.057Z,4.82
2023-05-19T06:58:33.401Z,4.13
2023-05-19T07:01:04.169Z,3.60
2023-05-19T07:03:37.498Z,4.18
2023-05-19T07:06:08.038Z,3.88
2023-05-19T07:08:37.308Z,4.28
2023-05-19T07:11:08.909Z,3.70
2023-05-19T07:13:37.403Z,3.80
2023-05-19T07:16:06.235Z,3.60
2023-05-19T07:18:34.711Z,3.42
2023-05-19T07:21:02.690Z,3.20
2023-05-19T07:23:31.226Z,3.90
2023-05-19T08:17:58.496Z,2.42
2023-05-19T08:39:30.693Z,2.00
2023-05-19T08:41:59.061Z,1.67
2023-05-19T08:44:28.053Z,1.98
2023-05-19T08:46:56.955Z,2.45
2023-05-19T08:49:28.823Z,2.47
2023-05-19T08:52:01.896Z,2.53
2023-05-19T08:54:35.328Z,2.20
2023-05-19T08:57:05.526Z,2.30
2023-05-19T08:59:34.020Z,2.10
2023-05-19T09:02:02.293Z,2.65
2023-05-19T09:04:31.167Z,2.50
2023-05-19T09:07:02.961Z,2.63
2023-05-19T09:09:33.281Z,2.08
2023-05-19T09:12:02.493Z,2.42
2023-05-19T09:14:31.688Z,1.73
2023-05-19T09:17:00.439Z,2.30
2023-05-19T09:19:30.602Z,2.40
2023-05-19T09:22:05.054Z,2.78
2023-05-19T09:58:28.140Z,2.08
2023-05-19T10:00:56.448Z,2.33
2023-05-19T10:03:25.209Z,2.40
2023-05-19T10:05:55.233Z,2.40
2023-05-19T10:08:24.514Z,2.20
2023-05-19T10:10:52.835Z,2.38
2023-05-19T10:13:22.727Z,2.33
2023-05-19T10:15:59.027Z,2.00
2023-05-19T10:18:29.566Z,2.30
2023-05-19T10:20:58.894Z,2.45
2023-05-19T10:23:26.818Z,2.15
2023-05-19T10:25:57.209Z,2.00
2023-05-19T10:28:28.354Z,1.90
2023-05-19T10:31:00.004Z,2.20
2023-05-19T10:33:34.884Z,2.22
2023-05-19T10:36:25.430Z,2.00
2023-05-19T10:38:57.855Z,1.92
2023-05-19T10:41:28.605Z,2.38
2023-05-19T10:44:02.293Z,2.20
2023-05-19T10:46:31.938Z,2.42
2023-05-19T10:49:00.618Z,1.80
2023-05-19T10:51:32.901Z,2.20
2023-05-19T10:54:03.225Z,2.20
2023-05-19T10:56:34.239Z,2.75
2023-05-19T10:59:02.869Z,2.15
2023-05-19T11:01:34.174Z,2.25
2023-05-19T11:04:07.267Z,2.20
2023-05-19T11:06:37.915Z,2.45
2023-05-19T11:09:13.538Z,1.70
2023-05-19T11:11:47.698Z,2.00
2023-05-19T11:14:17.194Z,2.00
2023-05-19T11:16:48.582Z,2.08
2023-05-19T11:19:21.352Z,2.22
2023-05-19T11:21:50.617Z,2.30
2023-05-19T11:24:40.999Z,2.08
2023-05-19T11:27:28.621Z,1.90
2023-05-19T11:29:57.537Z,2.10
2023-05-19T11:32:30.027Z,2.45
2023-05-19T11:34:59.191Z,2.15
2023-05-19T11:37:28.806Z,2.35
2023-05-19T11:39:56.782Z,2.05
2023-05-19T11:42:25.069Z,2.25
2023-05-19T11:44:56.398Z,2.03
2023-05-19T11:47:24.475Z,2.47
2023-05-19T11:49:53.798Z,2.70
2023-05-19T11:52:23.068Z,2.25
2023-05-19T11:54:51.781Z,2.78
2023-05-19T11:57:19.767Z,1.92
2023-05-19T11:59:50.014Z,2.33
2023-05-19T12:02:20.141Z,2.03
2023-05-19T12:04:49.259Z,2.50
2023-05-19T12:07:20.079Z,2.30
2023-05-19T12:09:48.620Z,2.33
2023-05-19T12:12:17.627Z,2.38
2023-05-19T12:14:46.187Z,2.60
2023-05-19T12:17:14.489Z,2.40
2023-05-19T12:19:44.556Z,3.08
2023-05-19T12:22:12.826Z,2.42
2023-05-19T12:24:43.134Z,2.70
2023-05-19T12:27:13.681Z,2.45
2023-05-19T12:29:41.958Z,1.80
2023-05-19T12:32:10.712Z,2.65
2023-05-19T12:34:39.318Z,2.72
2023-05-19T12:37:07.384Z,2.50
2023-05-19T12:39:35.267Z,2.75
2023-05-19T12:42:05.636Z,2.72
2023-05-19T12:44:38.346Z,2.20
2023-05-19T12:47:07.104Z,2.28
2023-05-19T12:49:35.179Z,2.28
2023-05-19T12:52:07.107Z,2.63
2023-05-19T12:57:08.257Z,2.80
2023-05-19T12:59:38.790Z,2.08
2023-05-19T13:02:07.759Z,2.17
2023-05-19T13:04:36.174Z,2.25
2023-05-19T13:07:04.385Z,2.20
2023-05-19T13:09:35.060Z,2.20
2023-05-19T13:12:04.863Z,2.45
2023-05-19T13:14:34.443Z,2.03
2023-05-19T13:17:02.421Z,1.92
2023-05-19T13:19:30.571Z,2.40
2023-05-19T13:21:58.876Z,2.50
2023-05-19T13:24:26.768Z,2.35
2023-05-19T13:26:55.991Z,2.47
2023-05-19T13:29:24.005Z,2.72
2023-05-19T13:31:53.507Z,2.65
2023-05-19T13:34:21.576Z,2.35
2023-05-19T13:36:49.635Z,2.42
2023-05-19T13:39:17.473Z,2.47
2023-05-19T13:41:45.638Z,2.47
2023-05-19T13:44:13.684Z,2.58
2023-05-19T13:46:45.389Z,2.30
2023-05-19T13:49:30.949Z,2.00
2023-05-19T13:52:00.020Z,2.30
2023-05-19T13:54:28.242Z,2.15
2023-05-19T13:56:56.313Z,2.33
2023-05-19T13:59:24.816Z,2.45
2023-05-19T14:01:53.094Z,2.53
2023-05-19T14:04:21.464Z,2.35
2023-05-19T14:06:50.878Z,2.70
2023-05-19T14:09:18.967Z,2.28
2023-05-19T14:11:46.976Z,2.40
2023-05-19T14:14:15.056Z,2.38
2023-05-19T14:16:43.173Z,2.20
2023-05-19T14:19:11.494Z,2.63
2023-05-19T14:21:39.487Z,2.35
2023-05-19T14:24:09.064Z,2.25
2023-05-19T14:26:37.052Z,2.53
2023-05-19T14:29:05.284Z,2.28
2023-05-19T14:31:34.353Z,2.42
2023-05-19T14:34:02.294Z,2.47
2023-05-19T14:36:30.436Z,2.25
2023-05-19T14:38:58.463Z,2.70
2023-05-19T14:41:27.864Z,2.00
2023-05-19T14:43:56.443Z,2.28
2023-05-19T14:46:24.469Z,1.75
2023-05-19T14:48:52.577Z,2.50
2023-05-19T14:51:20.658Z,2.63
2023-05-19T14:53:50.383Z,2.53
2023-05-19T14:56:18.222Z,2.20
2023-05-19T14:58:47.652Z,2.42
2023-05-19T15:01:15.599Z,2.58
2023-05-19T15:03:43.797Z,2.20
2023-05-19T15:06:12.014Z,2.17
2023-05-19T15:08:41.136Z,2.13
2023-05-19T15:11:09.294Z,1.92
2023-05-19T15:13:37.465Z,1.90
2023-05-19T15:16:17.713Z,2.00
2023-05-19T15:18:46.881Z,2.20
2023-05-19T15:21:15.052Z,1.88
2023-05-19T15:23:42.972Z,2.30
2023-05-19T15:26:11.082Z,2.90
2023-05-19T15:28:39.024Z,2.05
2023-05-19T15:31:08.564Z,2.53
2023-05-19T15:33:36.933Z,1.98
2023-05-19T15:36:05.291Z,1.98
2023-05-19T15:38:36.823Z,2.40
2023-05-19T15:41:08.728Z,2.00
2023-05-19T15:43:36.791Z,2.50
2023-05-19T15:46:05.297Z,2.00
2023-05-19T15:48:34.892Z,1.90
2023-05-19T15:51:02.965Z,2.47
2023-05-19T15:53:30.945Z,2.05
2023-05-19T15:55:58.946Z,2.33
2023-05-19T15:58:27.150Z,2.45
2023-05-19T16:00:55.052Z,2.38
2023-05-19T16:03:23.568Z,2.00
2023-05-19T16:05:54.114Z,1.90
2023-05-19T16:08:22.271Z,2.40
2023-05-19T16:10:50.432Z,2.35
2023-05-19T16:13:18.748Z,2.28
2023-05-19T16:15:46.628Z,2.72
2023-05-19T16:18:15.683Z,2.67
2023-05-19T16:20:44.322Z,2.30
2023-05-19T16:23:13.552Z,2.17
2023-05-19T16:25:41.621Z,2.22
2023-05-19T16:28:10.271Z,2.00
2023-05-19T16:30:38.395Z,2.30
2023-05-19T16:33:09.386Z,2.25
2023-05-19T16:35:37.612Z,2.60
2023-05-19T16:38:05.540Z,2.42
2023-05-19T16:40:35.311Z,2.25
2023-05-19T16:43:03.746Z,2.60
2023-05-19T16:45:31.891Z,2.20
2023-05-19T16:47:59.957Z,2.30
2023-05-19T16:50:28.175Z,2.30
2023-05-19T16:52:56.205Z,2.33
2023-05-19T16:55:25.440Z,2.30
2023-05-19T16:57:54.880Z,2.38
2023-05-19T17:00:23.234Z,2.00
2023-05-19T17:02:51.335Z,1.88
2023-05-19T17:05:19.405Z,2.22
2023-05-19T17:07:47.318Z,3.70
2023-05-19T17:10:15.595Z,3.13
2023-05-19T17:12:43.737Z,5.05
2023-05-19T17:15:13.483Z,3.53
2023-05-19T17:17:41.376Z,2.60
2023-05-19T17:20:12.014Z,2.90
2023-05-19T17:22:39.951Z,2.45
2023-05-19T17:25:08.885Z,2.13
2023-05-19T17:27:37.001Z,2.40
2023-05-19T17:30:05.654Z,2.72
2023-05-19T17:32:39.540Z,2.95
2023-05-19T17:37:36.499Z,2.65
2023-05-19T17:40:05.028Z,2.97
2023-05-19T17:42:33.461Z,3.63
2023-05-19T17:45:01.651Z,18.52
2023-05-19T17:47:29.727Z,8.60
2023-05-19T17:49:58.957Z,3.20
2023-05-19T17:52:27.739Z,2.70
2023-05-19T17:54:56.394Z,2.10
2023-05-19T17:57:26.231Z,2.70
2023-05-19T17:59:54.907Z,2.60
2023-05-19T18:02:23.544Z,2.50
2023-05-19T18:04:52.008Z,2.75
2023-05-19T18:07:22.212Z,2.65
2023-05-19T18:09:51.517Z,2.75
2023-05-19T18:12:19.440Z,2.58
2023-05-19T18:14:47.405Z,2.60
2023-05-19T18:17:15.427Z,2.03
2023-05-19T18:19:43.514Z,2.00
2023-05-19T18:22:12.995Z,2.47
2023-05-19T18:24:42.489Z,2.35
2023-05-19T18:27:10.501Z,2.08
2023-05-19T18:29:38.907Z,2.05
2023-05-19T18:32:07.787Z,2.42
2023-05-19T18:34:35.983Z,2.70
2023-05-19T18:37:03.872Z,2.13
2023-05-19T18:39:31.856Z,1.90
2023-05-19T18:42:01.788Z,2.05
2023-05-19T18:44:29.983Z,2.13
2023-05-19T18:46:57.892Z,2.20
2023-05-19T18:49:26.403Z,2.10
2023-05-19T18:51:54.471Z,2.15
2023-05-19T18:54:22.883Z,2.70
2023-05-19T18:56:51.452Z,2.40
2023-05-19T18:59:21.066Z,2.60
2023-05-19T19:01:49.068Z,2.50
2023-05-19T19:04:17.408Z,2.33
2023-05-19T19:06:45.472Z,2.40
2023-05-19T19:09:13.775Z,2.63
2023-05-19T19:11:42.266Z,2.15
2023-05-19T19:14:10.318Z,2.63
2023-05-19T19:16:39.731Z,2.28
2023-05-19T19:19:07.708Z,2.40
2023-05-19T19:21:35.831Z,2.20
2023-05-19T19:24:03.737Z,2.70
2023-05-19T19:26:31.713Z,2.20
2023-05-19T19:28:59.802Z,2.13
2023-05-19T19:31:28.823Z,2.42
2023-05-19T19:34:03.156Z,2.50
2023-05-19T19:36:32.121Z,2.50
2023-05-19T19:39:00.152Z,2.47
2023-05-19T19:41:29.932Z,2.65
2023-05-19T19:43:58.091Z,2.35
2023-05-19T19:46:26.254Z,2.80
2023-05-19T19:49:00.379Z,2.50
2023-05-19T19:51:28.772Z,2.35
2023-05-19T19:53:56.643Z,2.65
2023-05-19T19:56:26.173Z,2.63
2023-05-19T19:58:55.664Z,2.67
2023-05-19T20:01:27.975Z,3.10
2023-05-19T20:03:57.193Z,3.10
2023-05-19T20:06:26.842Z,2.70
2023-05-19T20:08:54.835Z,2.55
2023-05-19T20:11:24.422Z,2.42
2023-05-19T20:13:52.793Z,2.90
2023-05-19T20:16:21.030Z,2.35
2023-05-19T20:18:49.085Z,2.00
2023-05-19T20:21:17.021Z,2.28
2023-05-19T20:23:46.352Z,2.30
2023-05-19T20:26:15.022Z,2.47
2023-05-19T20:28:43.079Z,2.47
2023-05-19T20:31:11.059Z,2.67
2023-05-19T20:33:39.285Z,2.90
2023-05-19T20:36:08.279Z,3.05
2023-05-19T20:38:36.343Z,2.28
2023-05-19T20:41:05.946Z,2.47
2023-05-19T20:43:34.870Z,2.72
2023-05-19T20:46:03.895Z,2.53
2023-05-19T20:48:32.095Z,2.35
2023-05-19T20:51:00.294Z,2.35
2023-05-19T20:53:28.486Z,2.25
2023-05-19T20:55:56.577Z,2.40
2023-05-19T20:58:26.921Z,2.20
2023-05-19T21:00:57.735Z,2.58
2023-05-19T21:03:27.191Z,2.80
2023-05-19T21:05:55.709Z,2.42
2023-05-19T21:08:24.004Z,2.60
2023-05-19T21:10:52.205Z,2.45
2023-05-19T21:13:20.165Z,2.47
2023-05-19T21:15:49.402Z,2.35
2023-05-19T21:18:17.554Z,2.75
2023-05-19T21:20:45.470Z,2.58
2023-05-19T21:23:13.701Z,2.50
2023-05-19T21:25:44.579Z,2.20
2023-05-19T21:28:13.368Z,2.50
2023-05-19T21:30:41.749Z,2.78
2023-05-19T21:33:11.786Z,2.70
2023-05-19T21:35:39.752Z,2.95
2023-05-19T21:38:19.627Z,2.50
2023-05-19T21:40:51.432Z,3.10
2023-05-19T21:43:19.409Z,2.88
2023-05-19T21:45:47.415Z,2.67
2023-05-19T21:48:16.809Z,3.28
2023-05-19T21:50:44.932Z,2.58
2023-05-19T21:53:12.775Z,3.33
2023-05-19T21:55:41.062Z,2.92
2023-05-19T21:58:08.987Z,3.67
2023-05-19T22:00:37.609Z,3.45
2023-05-19T22:03:05.704Z,3.15
2023-05-19T22:05:35.402Z,3.00
2023-05-19T22:08:03.696Z,3.70
2023-05-19T22:10:31.800Z,3.17
2023-05-19T22:13:00.268Z,3.55
2023-05-19T22:15:28.080Z,4.38
2023-05-19T22:17:55.970Z,4.43
2023-05-19T22:20:23.941Z,5.13
2023-05-19T22:22:53.298Z,4.80
2023-05-19T22:25:21.372Z,4.85
2023-05-19T22:27:49.372Z,3.55
2023-05-19T22:30:17.402Z,3.45
2023-05-19T22:32:45.507Z,3.53
2023-05-19T22:35:13.408Z,3.83
2023-05-19T22:37:41.524Z,3.97
2023-05-19T22:40:11.752Z,3.80
2023-05-19T22:42:39.768Z,3.83
2023-05-19T22:45:08.649Z,3.90
2023-05-19T22:47:36.941Z,3.92
2023-05-19T22:50:05.507Z,3.85
2023-05-19T22:52:33.358Z,4.15
2023-05-19T22:55:01.517Z,4.03
2023-05-19T22:57:30.718Z,3.65
2023-05-19T22:59:58.739Z,4.18
2023-05-19T23:02:27.350Z,3.65
2023-05-19T23:04:55.321Z,3.90
2023-05-19T23:07:23.180Z,3.88
2023-05-19T23:09:51.359Z,3.75
2023-05-19T23:12:19.482Z,4.07
2023-05-19T23:14:48.881Z,3.80
2023-05-19T23:17:16.893Z,4.03
2023-05-19T23:19:44.977Z,4.60
2023-05-19T23:22:12.760Z,4.38
2023-05-19T23:24:40.806Z,4.10
2023-05-19T23:27:08.840Z,3.45
2023-05-19T23:29:36.779Z,3.67
2023-05-19T23:32:07.012Z,4.15
2023-05-19T23:34:35.100Z,3.63
2023-05-19T23:37:03.042Z,3.67
2023-05-19T23:39:31.143Z,3.75
2023-05-19T23:41:59.191Z,3.97
2023-05-19T23:44:27.434Z,4.10
2023-05-19T23:46:55.561Z,4.32
2023-05-19T23:49:25.026Z,4.93
2023-05-19T23:51:53.070Z,3.90
2023-05-19T23:54:21.117Z,3.95
2023-05-19T23:56:49.152Z,4.68
2023-05-19T23:59:17.154Z,4.60
